Terminal Aerodrome Forecast
Issued by NWS Bismarck, ND

Home | Current Version | Previous Version | Graphics & Text | Print | Product List | Glossary On
Versions: 1 2 3 4 5 6 7 8 9 10 11 12 13 14 15 16 17 18 19 20 21 22 23 24 25 26 27
231
FTUS43 KBIS 180715 AAA
TAFISN
TAF AMD
KISN 180715Z 1807/1906 00000KT 6SM BR OVC008
     FM180900 VRB03KT 5SM BR OVC008
     FM181400 33004KT P6SM SCT008 OVC020
     FM181800 33006KT P6SM OVC035
     FM182100 35007KT P6SM OVC070=

USA.gov is the U.S. government's official web portal to all federal, state and local government web resources and services.